createdAt,value
2022-08-05T00:00:15.990Z,3.10
2022-08-05T00:02:50.794Z,2.80
2022-08-05T00:06:02.723Z,3.10
2022-08-05T00:08:20.016Z,3.10
2022-08-05T00:11:00.404Z,3.22
2022-08-05T00:13:38.421Z,3.08
2022-08-05T00:16:10.883Z,3.20
2022-08-05T00:18:41.046Z,3.15
2022-08-05T00:21:10.966Z,2.90
2022-08-05T00:23:45.681Z,2.92
2022-08-05T00:26:16.353Z,2.60
2022-08-05T00:28:45.903Z,2.60
2022-08-05T00:31:14.401Z,2.78
2022-08-05T00:34:55.196Z,2.95
2022-08-05T00:37:13.232Z,2.58
2022-08-05T00:39:19.523Z,3.00
2022-08-05T00:41:51.594Z,3.08
2022-08-05T00:44:20.923Z,2.85
2022-08-05T00:46:54.327Z,3.03
2022-08-05T00:49:32.725Z,3.15
2022-08-05T00:52:01.051Z,3.40
2022-08-05T00:54:30.376Z,3.40
2022-08-05T00:56:58.422Z,3.00
2022-08-05T00:59:26.271Z,3.45
2022-08-05T01:02:02.636Z,3.10
2022-08-05T01:04:30.536Z,3.10
2022-08-05T01:06:58.428Z,3.10
2022-08-05T01:09:27.383Z,2.90
2022-08-05T01:12:04.825Z,2.70
2022-08-05T01:14:50.070Z,2.70
2022-08-05T01:17:22.777Z,2.90
2022-08-05T01:20:02.149Z,2.60
2022-08-05T01:22:41.934Z,2.80
2022-08-05T01:25:40.935Z,2.80
2022-08-05T01:28:29.190Z,2.50
2022-08-05T01:31:02.883Z,2.85
2022-08-05T01:33:35.891Z,2.90
2022-08-05T01:36:13.185Z,3.05
2022-08-05T01:38:45.477Z,2.90
2022-08-05T01:41:15.626Z,2.80
2022-08-05T01:43:45.645Z,2.75
2022-08-05T01:46:42.313Z,2.65
2022-08-05T01:49:12.215Z,3.00
2022-08-05T01:51:51.978Z,2.90
2022-08-05T01:54:20.608Z,2.63
2022-08-05T01:58:10.036Z,2.70
2022-08-05T01:59:47.029Z,2.70
2022-08-05T02:02:15.931Z,2.80
2022-08-05T02:04:49.655Z,2.73
2022-08-05T02:07:21.951Z,2.63
2022-08-05T02:09:50.980Z,2.47
2022-08-05T02:12:25.245Z,2.38
2022-08-05T02:15:03.080Z,2.73
2022-08-05T02:18:28.292Z,2.72
2022-08-05T02:20:41.733Z,2.60
2022-08-05T02:23:12.157Z,2.40
2022-08-05T02:25:49.818Z,2.80
2022-08-05T02:28:28.852Z,2.90
2022-08-05T02:31:14.409Z,2.70
2022-08-05T02:33:57.399Z,3.05
2022-08-05T02:36:27.578Z,2.70
2022-08-05T02:38:59.622Z,2.63
2022-08-05T02:41:43.267Z,2.70
2022-08-05T02:44:17.881Z,3.28
2022-08-05T02:46:59.816Z,4.00
2022-08-05T02:49:36.701Z,4.57
2022-08-05T02:52:09.045Z,4.72
2022-08-05T02:54:41.315Z,5.18
2022-08-05T02:58:12.348Z,4.90
2022-08-05T03:00:01.300Z,4.70
2022-08-05T03:02:35.060Z,4.30
2022-08-05T03:05:04.147Z,4.57
2022-08-05T03:08:00.736Z,4.28
2022-08-05T03:10:24.559Z,4.60
2022-08-05T03:12:54.543Z,4.95
2022-08-05T03:15:24.328Z,4.37
2022-08-05T03:17:55.761Z,4.80
2022-08-05T03:20:25.347Z,4.25
2022-08-05T03:22:57.272Z,4.68
2022-08-05T03:25:33.533Z,5.03
2022-08-05T03:28:14.634Z,4.47
2022-08-05T03:30:47.957Z,4.93
2022-08-05T03:33:17.804Z,5.38
2022-08-05T03:35:46.663Z,5.90
2022-08-05T03:38:15.160Z,5.35
2022-08-05T03:40:45.233Z,5.93
2022-08-05T03:44:09.701Z,6.10
2022-08-05T03:46:04.581Z,6.38
2022-08-05T03:48:35.182Z,6.40
2022-08-05T03:52:37.483Z,6.38
2022-08-05T03:55:53.613Z,6.10
2022-08-05T03:56:50.238Z,7.18
2022-08-05T03:59:24.557Z,7.65
2022-08-05T04:01:53.352Z,8.52
2022-08-05T04:04:28.860Z,8.43
2022-08-05T04:06:56.955Z,8.85
2022-08-05T04:09:26.542Z,9.90
2022-08-05T04:11:56.552Z,10.23
2022-08-05T04:14:29.864Z,10.20
2022-08-05T04:16:59.638Z,10.68
2022-08-05T04:19:29.212Z,10.20
2022-08-05T04:22:09.669Z,10.25
2022-08-05T04:24:44.458Z,10.85
2022-08-05T04:27:13.355Z,10.67
2022-08-05T04:29:41.802Z,10.20
2022-08-05T04:32:10.498Z,11.15
2022-08-05T04:34:43.091Z,10.85
2022-08-05T04:37:11.433Z,11.35
2022-08-05T04:39:40.763Z,11.20
2022-08-05T04:42:09.779Z,11.02
2022-08-05T04:44:37.642Z,11.45
2022-08-05T04:47:09.757Z,10.68
2022-08-05T04:50:03.013Z,10.57
2022-08-05T04:52:28.572Z,10.27
2022-08-05T04:54:57.364Z,10.00
2022-08-05T04:57:28.589Z,10.82
2022-08-05T04:59:58.494Z,10.80
2022-08-05T05:02:36.841Z,11.57
2022-08-05T05:05:16.546Z,11.53
2022-08-05T05:07:56.474Z,11.75
2022-08-05T05:10:29.706Z,12.98
2022-08-05T05:12:57.806Z,12.20
2022-08-05T05:15:57.895Z,11.63
2022-08-05T05:18:31.626Z,10.70
2022-08-05T05:21:04.351Z,11.45
2022-08-05T05:23:39.319Z,11.50
2022-08-05T05:26:28.416Z,10.57
2022-08-05T05:29:00.977Z,11.25
2022-08-05T05:34:02.617Z,13.25
2022-08-05T05:36:32.751Z,13.23
2022-08-05T05:39:05.441Z,13.65
2022-08-05T05:41:40.554Z,14.00
2022-08-05T05:44:35.995Z,15.68
2022-08-05T05:46:58.413Z,15.48
2022-08-05T05:49:33.073Z,16.73
2022-08-05T05:52:06.039Z,16.02
2022-08-05T05:54:50.144Z,16.27
2022-08-05T05:57:19.815Z,15.73
2022-08-05T05:59:48.909Z,15.93
2022-08-05T06:02:17.353Z,16.35
2022-08-05T06:05:03.392Z,16.40
2022-08-05T06:07:41.593Z,17.35
2022-08-05T06:10:11.309Z,22.92
2022-08-05T06:12:42.272Z,24.98
2022-08-05T06:15:16.412Z,30.45
2022-08-05T06:17:54.258Z,34.13
2022-08-05T06:20:23.106Z,36.03
2022-08-05T06:22:52.351Z,36.03
2022-08-05T06:25:25.207Z,35.10
2022-08-05T06:28:12.249Z,39.27
2022-08-05T06:30:49.158Z,34.42
2022-08-05T06:33:19.430Z,33.08
2022-08-05T06:36:07.641Z,30.23
2022-08-05T06:38:39.237Z,29.35
2022-08-05T06:41:15.046Z,26.77
2022-08-05T06:43:57.440Z,27.67
2022-08-05T06:46:29.869Z,24.50
2022-08-05T06:48:59.489Z,24.55
2022-08-05T06:51:30.092Z,22.13
2022-08-05T06:54:02.484Z,20.98
2022-08-05T06:56:34.484Z,20.70
2022-08-05T06:59:03.009Z,19.63
2022-08-05T07:01:32.266Z,20.15
2022-08-05T07:04:02.443Z,20.17
2022-08-05T07:06:31.754Z,19.00
2022-08-05T07:09:04.230Z,19.05
2022-08-05T07:11:37.351Z,19.45
2022-08-05T07:14:29.522Z,18.77
2022-08-05T07:18:01.615Z,19.67
2022-08-05T07:22:37.133Z,25.33
2022-08-05T07:25:22.065Z,23.67
2022-08-05T07:28:01.433Z,21.55
2022-08-05T07:30:33.588Z,19.42
2022-08-05T07:33:05.088Z,18.15
2022-08-05T07:36:04.784Z,16.77
2022-08-05T07:38:32.979Z,16.35
2022-08-05T07:41:35.216Z,15.50
2022-08-05T07:43:56.406Z,15.07
2022-08-05T07:46:26.379Z,15.85
2022-08-05T07:49:03.076Z,15.73
2022-08-05T07:51:40.546Z,16.57
2022-08-05T07:54:18.851Z,17.60
2022-08-05T07:57:13.850Z,18.80
2022-08-05T07:59:39.870Z,21.95
2022-08-05T08:02:15.264Z,23.65
2022-08-05T08:04:44.882Z,22.67
2022-08-05T08:07:13.495Z,20.38
2022-08-05T08:09:41.401Z,18.13
2022-08-05T08:12:27.321Z,17.70
2022-08-05T08:15:02.526Z,18.10
2022-08-05T08:17:31.536Z,19.40
2022-08-05T08:20:21.496Z,17.33
2022-08-05T08:22:52.556Z,15.90
2022-08-05T08:25:26.427Z,14.48
2022-08-05T08:27:56.506Z,14.13
2022-08-05T08:30:32.726Z,13.65
2022-08-05T08:33:08.767Z,11.80
2022-08-05T08:35:53.802Z,10.70
2022-08-05T08:38:35.739Z,10.13
2022-08-05T08:41:08.754Z,9.43
2022-08-05T08:45:24.776Z,9.67
2022-08-05T08:46:28.760Z,9.20
2022-08-05T08:49:06.093Z,8.98
2022-08-05T08:52:02.900Z,9.52
2022-08-05T08:54:36.463Z,8.85
2022-08-05T08:57:11.220Z,9.67
2022-08-05T08:59:42.046Z,11.32
2022-08-05T09:02:16.642Z,11.20
2022-08-05T09:04:58.479Z,12.07
2022-08-05T09:07:39.553Z,12.10
2022-08-05T09:10:22.587Z,10.80
2022-08-05T09:12:55.808Z,10.43
2022-08-05T09:15:25.282Z,9.98
2022-08-05T09:17:53.389Z,9.10
2022-08-05T09:20:37.754Z,9.25
2022-08-05T09:23:19.792Z,8.88
2022-08-05T09:26:01.205Z,7.63
2022-08-05T09:28:34.387Z,7.43
2022-08-05T09:31:18.131Z,7.38
2022-08-05T09:33:55.168Z,7.05
2022-08-05T09:36:27.411Z,7.45
2022-08-05T09:38:59.401Z,7.07
2022-08-05T09:41:27.413Z,7.55
2022-08-05T09:44:01.202Z,7.15
2022-08-05T09:46:31.960Z,7.00
2022-08-05T09:49:07.521Z,6.25
2022-08-05T09:51:49.366Z,6.00
2022-08-05T09:54:28.754Z,5.43
2022-08-05T09:57:01.653Z,5.50
2022-08-05T09:59:34.777Z,5.57
2022-08-05T10:02:07.097Z,5.20
2022-08-05T10:04:40.927Z,5.20
2022-08-05T10:07:20.009Z,5.13
2022-08-05T10:10:14.313Z,5.60
2022-08-05T10:12:50.403Z,5.53
2022-08-05T10:15:23.946Z,5.50
2022-08-05T10:18:08.652Z,5.78
2022-08-05T10:20:39.841Z,5.30
2022-08-05T10:23:08.973Z,5.63
2022-08-05T10:25:57.497Z,4.82
2022-08-05T10:28:30.331Z,4.78
2022-08-05T10:32:48.713Z,5.07
2022-08-05T10:33:54.071Z,4.57
2022-08-05T10:36:23.437Z,4.45
2022-08-05T10:38:59.721Z,4.93
2022-08-05T10:41:45.148Z,4.65
2022-08-05T10:44:18.453Z,4.00
2022-08-05T10:46:50.911Z,4.30
2022-08-05T10:49:27.207Z,4.45
2022-08-05T10:52:05.011Z,4.20
2022-08-05T10:54:56.061Z,4.07
2022-08-05T10:57:30.989Z,4.70
2022-08-05T11:00:19.770Z,4.35
2022-08-05T11:03:25.169Z,4.82
2022-08-05T11:06:15.429Z,6.15
2022-08-05T11:09:13.009Z,7.10
2022-08-05T11:11:53.692Z,8.05
2022-08-05T11:17:58.178Z,6.10
2022-08-05T11:20:44.617Z,4.90
2022-08-05T11:24:04.857Z,5.63
2022-08-05T11:26:28.503Z,5.30
2022-08-05T11:28:58.740Z,5.32
2022-08-05T11:31:54.126Z,5.10
2022-08-05T11:34:37.287Z,4.82
2022-08-05T11:37:06.246Z,5.78
2022-08-05T11:39:55.334Z,4.90
2022-08-05T11:42:28.841Z,6.00
2022-08-05T11:45:02.943Z,4.45
2022-08-05T11:47:49.882Z,5.00
2022-08-05T11:50:18.652Z,6.27
2022-08-05T11:52:49.620Z,6.05
2022-08-05T11:55:20.498Z,6.27
2022-08-05T11:58:10.521Z,6.40
2022-08-05T12:00:38.462Z,4.00
2022-08-05T12:03:23.963Z,3.70
2022-08-05T12:06:02.826Z,3.63
2022-08-05T12:08:31.515Z,3.45
2022-08-05T12:11:06.123Z,3.60
2022-08-05T12:13:48.821Z,2.90
2022-08-05T12:16:19.554Z,2.60
2022-08-05T12:18:52.380Z,2.50
2022-08-05T12:21:23.580Z,2.90
2022-08-05T12:24:05.114Z,2.67
2022-08-05T12:26:36.143Z,2.92
2022-08-05T12:29:05.085Z,2.70
2022-08-05T12:31:43.480Z,2.50
2022-08-05T12:34:21.232Z,2.90
2022-08-05T12:36:51.745Z,2.72
2022-08-05T12:39:20.159Z,3.20
2022-08-05T12:41:49.613Z,3.20
2022-08-05T12:44:33.236Z,3.40
2022-08-05T12:47:02.839Z,4.38
2022-08-05T12:50:02.300Z,4.88
2022-08-05T12:52:37.778Z,5.13
2022-08-05T12:55:22.637Z,6.60
2022-08-05T12:58:49.311Z,7.43
2022-08-05T13:02:02.361Z,7.18
2022-08-05T13:03:39.086Z,5.78
2022-08-05T13:06:13.762Z,6.60
2022-08-05T13:08:49.113Z,6.25
2022-08-05T13:11:25.647Z,5.63
2022-08-05T13:14:20.460Z,5.20
2022-08-05T13:17:04.375Z,5.35
2022-08-05T13:19:51.746Z,3.90
2022-08-05T13:22:28.557Z,4.10
2022-08-05T13:25:00.841Z,4.28
2022-08-05T13:27:35.496Z,3.97
2022-08-05T13:30:33.920Z,3.90
2022-08-05T13:33:01.226Z,3.78
2022-08-05T13:35:43.130Z,5.05
2022-08-05T13:38:28.160Z,3.55
2022-08-05T13:40:59.882Z,3.20
2022-08-05T13:43:45.722Z,3.00
2022-08-05T13:46:30.858Z,2.90
2022-08-05T13:49:09.833Z,2.77
2022-08-05T13:51:40.954Z,3.20
2022-08-05T13:54:11.977Z,2.78
2022-08-05T13:56:45.229Z,3.20
2022-08-05T13:59:20.245Z,3.00
2022-08-05T14:01:56.663Z,3.17
2022-08-05T14:04:49.391Z,3.15
2022-08-05T14:07:26.466Z,2.90
2022-08-05T14:10:08.243Z,2.85
2022-08-05T14:12:36.630Z,3.00
2022-08-05T14:16:05.605Z,3.83
2022-08-05T14:17:59.399Z,2.83
2022-08-05T14:20:27.899Z,2.80
2022-08-05T14:22:56.043Z,3.00
2022-08-05T14:25:27.936Z,3.50
2022-08-05T14:27:56.783Z,4.13
2022-08-05T14:30:27.894Z,3.77
2022-08-05T14:32:57.563Z,3.47
2022-08-05T14:35:37.213Z,2.92
2022-08-05T14:38:32.290Z,2.63
2022-08-05T14:41:05.805Z,2.42
2022-08-05T14:44:01.666Z,1.90
2022-08-05T14:46:28.857Z,1.65
2022-08-05T14:49:03.664Z,1.70
2022-08-05T14:51:35.895Z,1.67
2022-08-05T14:54:27.638Z,1.80
2022-08-05T14:56:54.584Z,1.38
2022-08-05T14:59:22.985Z,1.40
2022-08-05T15:01:51.113Z,1.40
2022-08-05T15:04:23.157Z,1.30
2022-08-05T15:06:55.304Z,1.40
2022-08-05T15:09:54.241Z,1.25
2022-08-05T15:12:16.454Z,1.40
2022-08-05T15:14:50.289Z,1.40
2022-08-05T15:17:45.987Z,1.98
2022-08-05T15:20:18.240Z,1.42
2022-08-05T15:22:52.192Z,1.63
2022-08-05T15:25:23.695Z,1.63
2022-08-05T15:28:13.205Z,5.23
2022-08-05T15:30:43.342Z,3.35
2022-08-05T15:33:11.878Z,2.58
2022-08-05T15:35:44.915Z,4.50
2022-08-05T15:38:34.811Z,3.85
2022-08-05T15:41:23.059Z,3.63
2022-08-05T15:43:49.866Z,2.55
2022-08-05T15:46:18.113Z,2.05
2022-08-05T15:48:52.905Z,1.60
2022-08-05T15:52:04.416Z,3.08
2022-08-05T15:54:16.615Z,2.58
2022-08-05T15:56:44.588Z,1.30
2022-08-05T15:59:21.664Z,1.40
2022-08-05T16:01:52.885Z,1.20
2022-08-05T16:04:25.209Z,1.80
2022-08-05T16:06:55.918Z,2.03
2022-08-05T16:09:24.797Z,1.80
2022-08-05T16:11:53.898Z,1.30
2022-08-05T16:14:22.371Z,1.27
2022-08-05T16:16:50.590Z,1.00
2022-08-05T16:19:25.627Z,1.10
2022-08-05T16:22:10.792Z,1.33
2022-08-05T16:24:51.321Z,1.00
2022-08-05T16:27:47.156Z,0.90
2022-08-05T16:30:26.415Z,0.80
2022-08-05T16:32:55.284Z,1.00
2022-08-05T16:35:28.002Z,0.90
2022-08-05T16:38:15.257Z,0.80
2022-08-05T16:40:52.165Z,0.80
2022-08-05T16:43:24.206Z,0.60
2022-08-05T16:46:04.678Z,5.32
2022-08-05T16:48:37.518Z,0.60
2022-08-05T16:51:10.087Z,0.70
2022-08-05T16:54:04.366Z,0.70
2022-08-05T16:56:30.128Z,0.73
2022-08-05T16:58:58.316Z,0.60
2022-08-05T17:01:26.901Z,0.70
2022-08-05T17:03:56.924Z,0.70
2022-08-05T17:06:25.000Z,0.83
2022-08-05T17:08:54.716Z,0.90
2022-08-05T17:11:23.959Z,0.98
2022-08-05T17:14:00.306Z,0.80
2022-08-05T17:16:36.794Z,0.80
2022-08-05T17:19:07.097Z,0.77
2022-08-05T17:21:37.615Z,0.80
2022-08-05T17:24:28.038Z,0.90
2022-08-05T17:26:58.150Z,1.00
2022-08-05T17:29:33.916Z,0.90
2022-08-05T17:32:08.628Z,0.90
2022-08-05T17:34:40.147Z,1.00
2022-08-05T17:37:29.490Z,0.93
2022-08-05T17:40:00.270Z,0.80
2022-08-05T17:42:32.412Z,0.95
2022-08-05T17:45:18.242Z,0.90
2022-08-05T17:47:53.995Z,1.15
2022-08-05T17:50:28.654Z,0.95
2022-08-05T17:52:59.868Z,1.10
2022-08-05T17:55:38.468Z,0.98
2022-08-05T17:58:09.771Z,0.80
2022-08-05T18:00:44.727Z,0.90
2022-08-05T18:03:28.168Z,0.90
2022-08-05T18:06:05.772Z,1.00
2022-08-05T18:08:34.237Z,1.40
2022-08-05T18:11:03.828Z,1.30
2022-08-05T18:13:36.422Z,1.60
2022-08-05T18:16:05.535Z,0.90
2022-08-05T18:18:39.917Z,0.80
2022-08-05T18:21:13.252Z,0.88
2022-08-05T18:23:48.065Z,0.90
2022-08-05T18:26:18.111Z,0.77
2022-08-05T18:28:46.853Z,0.90
2022-08-05T18:31:16.046Z,1.08
2022-08-05T18:33:46.762Z,0.90
2022-08-05T18:36:15.766Z,0.80
2022-08-05T18:38:43.830Z,0.90
2022-08-05T18:41:57.573Z,1.20
2022-08-05T18:44:06.249Z,1.30
2022-08-05T18:46:35.993Z,1.00
2022-08-05T18:49:30.797Z,1.00
2022-08-05T18:52:32.926Z,0.73
2022-08-05T18:55:01.420Z,0.98
2022-08-05T18:57:43.074Z,1.00
2022-08-05T19:00:20.383Z,1.10
2022-08-05T19:02:48.871Z,0.80
2022-08-05T19:06:11.444Z,0.88
2022-08-05T19:08:12.219Z,0.93
2022-08-05T19:10:41.772Z,0.90
2022-08-05T19:13:12.303Z,1.40
2022-08-05T19:16:00.011Z,1.80
2022-08-05T19:18:31.659Z,1.10
2022-08-05T19:21:00.237Z,1.45
2022-08-05T19:24:06.677Z,1.42
2022-08-05T19:26:19.425Z,1.67
2022-08-05T19:28:47.349Z,1.73
2022-08-05T19:31:19.499Z,1.85
2022-08-05T19:33:56.889Z,2.00
2022-08-05T19:36:25.553Z,1.80
2022-08-05T19:38:54.869Z,1.90
2022-08-05T19:41:58.557Z,1.90
2022-08-05T19:44:15.078Z,2.00
2022-08-05T19:46:44.492Z,2.30
2022-08-05T19:49:17.189Z,2.00
2022-08-05T19:52:09.080Z,2.45
2022-08-05T19:54:35.083Z,2.30
2022-08-05T19:57:06.675Z,2.03
2022-08-05T19:59:55.225Z,2.30
2022-08-05T20:02:30.279Z,1.75
2022-08-05T20:04:59.888Z,2.05
2022-08-05T20:07:46.224Z,1.75
2022-08-05T20:10:17.206Z,1.70
2022-08-05T20:12:47.929Z,1.17
2022-08-05T20:15:48.758Z,1.20
2022-08-05T20:18:09.761Z,1.20
2022-08-05T20:20:48.240Z,1.50
2022-08-05T20:23:16.236Z,1.45
2022-08-05T20:25:44.333Z,1.48
2022-08-05T20:28:14.665Z,1.70
2022-08-05T20:30:42.727Z,1.70
2022-08-05T20:33:12.310Z,1.70
2022-08-05T20:35:45.276Z,1.40
2022-08-05T20:38:20.163Z,1.40
2022-08-05T20:40:55.241Z,1.30
2022-08-05T20:43:57.485Z,1.50
2022-08-05T20:46:18.627Z,1.45
2022-08-05T20:48:54.766Z,1.73
2022-08-05T20:51:22.742Z,1.50
2022-08-05T20:53:56.580Z,1.58
2022-08-05T20:56:29.899Z,2.00
2022-08-05T20:58:59.995Z,1.95
2022-08-05T21:01:41.984Z,1.97
2022-08-05T21:04:11.407Z,1.63
2022-08-05T21:06:45.751Z,1.50
2022-08-05T21:09:15.032Z,1.67
2022-08-05T21:12:06.988Z,1.60
2022-08-05T21:14:34.600Z,1.55
2022-08-05T21:17:04.817Z,1.40
2022-08-05T21:19:47.107Z,1.58
2022-08-05T21:22:17.665Z,1.70
2022-08-05T21:24:49.031Z,1.70
2022-08-05T21:27:20.428Z,1.40
2022-08-05T21:29:55.279Z,1.60
2022-08-05T21:32:24.508Z,1.80
2022-08-05T21:35:08.290Z,1.60
2022-08-05T21:37:52.711Z,1.73
2022-08-05T21:40:21.593Z,1.92
2022-08-05T21:42:52.049Z,2.00
2022-08-05T21:45:24.226Z,2.10
2022-08-05T21:47:56.214Z,2.70
2022-08-05T21:50:26.979Z,1.90
2022-08-05T21:52:59.008Z,2.13
2022-08-05T21:55:43.002Z,1.80
2022-08-05T21:58:30.842Z,1.98
2022-08-05T22:01:00.955Z,1.80
2022-08-05T22:03:48.205Z,1.48
2022-08-05T22:06:22.743Z,1.70
2022-08-05T22:08:51.701Z,1.90
2022-08-05T22:11:34.436Z,1.52
2022-08-05T22:14:06.283Z,1.60
2022-08-05T22:16:56.789Z,1.60
2022-08-05T22:20:00.503Z,1.60
2022-08-05T22:22:15.915Z,1.50
2022-08-05T22:25:01.924Z,1.50
2022-08-05T22:28:09.335Z,1.67
2022-08-05T22:30:35.871Z,1.50
2022-08-05T22:33:04.426Z,1.50
2022-08-05T22:35:48.559Z,1.88
2022-08-05T22:38:19.759Z,1.88
2022-08-05T22:40:49.924Z,1.80
2022-08-05T22:43:37.331Z,1.90
2022-08-05T22:46:13.536Z,2.10
2022-08-05T22:48:51.417Z,2.33
2022-08-05T22:51:23.343Z,2.00
2022-08-05T22:54:08.502Z,2.20
2022-08-05T22:56:36.422Z,2.20
2022-08-05T22:59:46.114Z,2.03
2022-08-05T23:02:04.178Z,2.08
2022-08-05T23:04:34.356Z,2.17
2022-08-05T23:07:02.260Z,1.80
2022-08-05T23:09:57.333Z,2.05
2022-08-05T23:12:24.093Z,2.10
2022-08-05T23:14:52.508Z,2.20
2022-08-05T23:17:34.969Z,1.80
2022-08-05T23:20:16.703Z,1.95
2022-08-05T23:22:47.420Z,2.00
2022-08-05T23:25:52.714Z,1.60
2022-08-05T23:28:06.906Z,1.50
2022-08-05T23:30:39.948Z,1.90
2022-08-05T23:33:22.355Z,1.52
2022-08-05T23:35:59.437Z,1.77
2022-08-05T23:38:27.324Z,1.50
2022-08-05T23:40:56.585Z,1.52
2022-08-05T23:43:37.207Z,1.60
2022-08-05T23:46:21.223Z,1.60
2022-08-05T23:49:01.201Z,1.83
2022-08-05T23:51:53.933Z,1.77
2022-08-05T23:54:25.847Z,1.70
2022-08-05T23:56:57.146Z,1.67
